sensor_id;sensor_type;location;lat;lon;timestamp;temperature;humidity
52159;DHT22;38145;53.182;6.284;2022-08-04T00:00:26;21.30;99.90
52159;DHT22;38145;53.182;6.284;2022-08-04T00:03:15;21.40;99.90
52159;DHT22;38145;53.182;6.284;2022-08-04T00:06:03;21.30;99.90
52159;DHT22;38145;53.182;6.284;2022-08-04T00:11:01;21.20;99.90
52159;DHT22;38145;53.182;6.284;2022-08-04T00:13:31;21.20;99.90
52159;DHT22;38145;53.182;6.284;2022-08-04T00:16:05;21.20;99.90
52159;DHT22;38145;53.182;6.284;2022-08-04T00:18:39;21.10;99.90
52159;DHT22;38145;53.182;6.284;2022-08-04T00:21:06;21.10;99.90
52159;DHT22;38145;53.182;6.284;2022-08-04T00:23:35;21.10;99.90
52159;DHT22;38145;53.182;6.284;2022-08-04T00:26:03;21.10;99.90
52159;DHT22;38145;53.182;6.284;2022-08-04T00:28:29;21.10;99.90
52159;DHT22;38145;53.182;6.284;2022-08-04T00:30:56;21.10;99.90
52159;DHT22;38145;53.182;6.284;2022-08-04T00:33:22;21.00;99.90
52159;DHT22;38145;53.182;6.284;2022-08-04T00:35:49;21.00;99.90
52159;DHT22;38145;53.182;6.284;2022-08-04T00:38:17;21.00;99.90
52159;DHT22;38145;53.182;6.284;2022-08-04T00:40:57;21.00;99.90
52159;DHT22;38145;53.182;6.284;2022-08-04T00:43:33;21.00;99.90
52159;DHT22;38145;53.182;6.284;2022-08-04T00:46:20;20.90;99.90
52159;DHT22;38145;53.182;6.284;2022-08-04T00:49:02;20.90;99.90
52159;DHT22;38145;53.182;6.284;2022-08-04T00:57:22;20.80;99.90
52159;DHT22;38145;53.182;6.284;2022-08-04T01:00:04;20.80;99.90
52159;DHT22;38145;53.182;6.284;2022-08-04T01:03:13;20.80;99.90
52159;DHT22;38145;53.182;6.284;2022-08-04T01:08:41;20.80;99.90
52159;DHT22;38145;53.182;6.284;2022-08-04T01:11:23;20.80;99.90
52159;DHT22;38145;53.182;6.284;2022-08-04T01:14:15;20.70;99.90
52159;DHT22;38145;53.182;6.284;2022-08-04T01:16:50;20.70;99.90
52159;DHT22;38145;53.182;6.284;2022-08-04T01:19:47;20.70;99.90
52159;DHT22;38145;53.182;6.284;2022-08-04T01:30:15;20.60;99.90
52159;DHT22;38145;53.182;6.284;2022-08-04T01:32:52;20.60;99.90
52159;DHT22;38145;53.182;6.284;2022-08-04T01:35:28;20.60;99.90
52159;DHT22;38145;53.182;6.284;2022-08-04T01:38:08;20.60;99.90
52159;DHT22;38145;53.182;6.284;2022-08-04T01:40:40;20.60;99.90
52159;DHT22;38145;53.182;6.284;2022-08-04T01:43:09;20.50;99.90
52159;DHT22;38145;53.182;6.284;2022-08-04T01:45:36;20.60;99.90
52159;DHT22;38145;53.182;6.284;2022-08-04T01:48:03;20.60;99.90
52159;DHT22;38145;53.182;6.284;2022-08-04T01:50:34;20.50;99.90
52159;DHT22;38145;53.182;6.284;2022-08-04T01:53:01;20.50;99.90
52159;DHT22;38145;53.182;6.284;2022-08-04T01:55:28;20.50;99.90
52159;DHT22;38145;53.182;6.284;2022-08-04T01:57:58;20.50;99.90
52159;DHT22;38145;53.182;6.284;2022-08-04T02:00:26;20.50;99.90
52159;DHT22;38145;53.182;6.284;2022-08-04T02:02:54;20.50;99.90
52159;DHT22;38145;53.182;6.284;2022-08-04T02:05:23;20.50;99.90
52159;DHT22;38145;53.182;6.284;2022-08-04T02:08:00;20.50;99.90
52159;DHT22;38145;53.182;6.284;2022-08-04T02:13:07;20.50;99.90
52159;DHT22;38145;53.182;6.284;2022-08-04T02:15:57;20.50;99.90
52159;DHT22;38145;53.182;6.284;2022-08-04T02:18:31;20.50;99.90
52159;DHT22;38145;53.182;6.284;2022-08-04T02:21:00;20.50;99.90
52159;DHT22;38145;53.182;6.284;2022-08-04T02:23:36;20.40;99.90
52159;DHT22;38145;53.182;6.284;2022-08-04T02:26:06;20.40;99.90
52159;DHT22;38145;53.182;6.284;2022-08-04T02:28:46;20.40;99.90
52159;DHT22;38145;53.182;6.284;2022-08-04T02:34:05;20.40;99.90
52159;DHT22;38145;53.182;6.284;2022-08-04T02:36:36;20.40;99.90
52159;DHT22;38145;53.182;6.284;2022-08-04T02:39:05;20.40;99.90
52159;DHT22;38145;53.182;6.284;2022-08-04T02:41:33;20.50;99.90
52159;DHT22;38145;53.182;6.284;2022-08-04T02:44:04;20.50;99.90
52159;DHT22;38145;53.182;6.284;2022-08-04T02:46:32;20.40;99.90
52159;DHT22;38145;53.182;6.284;2022-08-04T02:49:00;20.40;99.90
52159;DHT22;38145;53.182;6.284;2022-08-04T02:51:29;20.40;99.90
52159;DHT22;38145;53.182;6.284;2022-08-04T02:53:57;20.50;99.90
52159;DHT22;38145;53.182;6.284;2022-08-04T02:56:26;20.50;99.90
52159;DHT22;38145;53.182;6.284;2022-08-04T02:58:58;20.50;99.90
52159;DHT22;38145;53.182;6.284;2022-08-04T03:01:24;20.50;99.90
52159;DHT22;38145;53.182;6.284;2022-08-04T03:12:16;20.40;99.90
52159;DHT22;38145;53.182;6.284;2022-08-04T03:17:30;20.40;99.90
52159;DHT22;38145;53.182;6.284;2022-08-04T03:20:21;20.30;99.90
52159;DHT22;38145;53.182;6.284;2022-08-04T03:25:40;20.20;99.90
52159;DHT22;38145;53.182;6.284;2022-08-04T03:28:34;20.20;99.90
52159;DHT22;38145;53.182;6.284;2022-08-04T03:31:27;20.30;99.90
52159;DHT22;38145;53.182;6.284;2022-08-04T03:34:16;20.30;99.90
52159;DHT22;38145;53.182;6.284;2022-08-04T03:37:02;20.30;99.90
52159;DHT22;38145;53.182;6.284;2022-08-04T03:39:43;20.20;99.90
52159;DHT22;38145;53.182;6.284;2022-08-04T03:42:43;20.20;99.90
52159;DHT22;38145;53.182;6.284;2022-08-04T03:45:38;20.20;99.90
52159;DHT22;38145;53.182;6.284;2022-08-04T03:54:07;20.30;99.90
52159;DHT22;38145;53.182;6.284;2022-08-04T03:59:54;20.10;99.90
52159;DHT22;38145;53.182;6.284;2022-08-04T04:05:11;20.20;99.90
52159;DHT22;38145;53.182;6.284;2022-08-04T04:13:47;20.30;99.90
52159;DHT22;38145;53.182;6.284;2022-08-04T04:19:07;20.20;99.90
52159;DHT22;38145;53.182;6.284;2022-08-04T04:27:26;20.30;99.90
52159;DHT22;38145;53.182;6.284;2022-08-04T04:30:06;20.40;99.90
52159;DHT22;38145;53.182;6.284;2022-08-04T04:38:26;20.30;99.90
52159;DHT22;38145;53.182;6.284;2022-08-04T04:41:19;20.30;99.90
52159;DHT22;38145;53.182;6.284;2022-08-04T04:43:54;20.30;99.90
52159;DHT22;38145;53.182;6.284;2022-08-04T04:46:41;20.20;99.90
52159;DHT22;38145;53.182;6.284;2022-08-04T04:49:28;20.20;99.90
52159;DHT22;38145;53.182;6.284;2022-08-04T04:54:54;20.20;99.90
52159;DHT22;38145;53.182;6.284;2022-08-04T04:57:23;20.20;99.90
52159;DHT22;38145;53.182;6.284;2022-08-04T04:59:56;20.10;99.90
52159;DHT22;38145;53.182;6.284;2022-08-04T05:04:58;20.30;99.90
52159;DHT22;38145;53.182;6.284;2022-08-04T05:07:44;20.20;99.90
52159;DHT22;38145;53.182;6.284;2022-08-04T05:13:36;20.30;99.90
52159;DHT22;38145;53.182;6.284;2022-08-04T05:18:39;20.40;99.90
52159;DHT22;38145;53.182;6.284;2022-08-04T05:21:26;20.50;99.90
52159;DHT22;38145;53.182;6.284;2022-08-04T05:24:03;20.60;99.90
52159;DHT22;38145;53.182;6.284;2022-08-04T05:26:32;20.60;99.90
52159;DHT22;38145;53.182;6.284;2022-08-04T05:29:05;20.60;99.90
52159;DHT22;38145;53.182;6.284;2022-08-04T05:31:36;20.70;99.90
52159;DHT22;38145;53.182;6.284;2022-08-04T05:36:46;20.80;99.90
52159;DHT22;38145;53.182;6.284;2022-08-04T05:39:22;20.90;99.90
52159;DHT22;38145;53.182;6.284;2022-08-04T05:41:49;20.80;99.90
52159;DHT22;38145;53.182;6.284;2022-08-04T05:44:18;20.90;99.90
52159;DHT22;38145;53.182;6.284;2022-08-04T05:46:47;21.00;99.90
52159;DHT22;38145;53.182;6.284;2022-08-04T05:49:15;21.00;99.90
52159;DHT22;38145;53.182;6.284;2022-08-04T05:51:43;21.10;99.90
52159;DHT22;38145;53.182;6.284;2022-08-04T05:54:11;21.10;99.90
52159;DHT22;38145;53.182;6.284;2022-08-04T05:56:39;21.10;99.90
52159;DHT22;38145;53.182;6.284;2022-08-04T05:59:06;21.20;99.90
52159;DHT22;38145;53.182;6.284;2022-08-04T06:01:33;21.30;99.90
52159;DHT22;38145;53.182;6.284;2022-08-04T06:04:01;21.30;99.90
52159;DHT22;38145;53.182;6.284;2022-08-04T06:06:28;21.40;99.90
52159;DHT22;38145;53.182;6.284;2022-08-04T06:08:55;21.50;99.90
52159;DHT22;38145;53.182;6.284;2022-08-04T06:11:22;21.60;99.90
52159;DHT22;38145;53.182;6.284;2022-08-04T06:13:53;21.70;99.90
52159;DHT22;38145;53.182;6.284;2022-08-04T06:16:24;21.80;99.90
52159;DHT22;38145;53.182;6.284;2022-08-04T06:18:53;21.90;99.90
52159;DHT22;38145;53.182;6.284;2022-08-04T06:21:24;22.00;99.90
52159;DHT22;38145;53.182;6.284;2022-08-04T06:23:53;22.20;99.90
52159;DHT22;38145;53.182;6.284;2022-08-04T06:26:20;22.30;99.90
52159;DHT22;38145;53.182;6.284;2022-08-04T06:28:49;22.30;99.90
52159;DHT22;38145;53.182;6.284;2022-08-04T06:31:17;22.30;99.90
52159;DHT22;38145;53.182;6.284;2022-08-04T06:34:10;22.40;99.90
52159;DHT22;38145;53.182;6.284;2022-08-04T06:36:38;22.40;99.90
52159;DHT22;38145;53.182;6.284;2022-08-04T06:39:07;22.50;99.90
52159;DHT22;38145;53.182;6.284;2022-08-04T06:41:34;22.60;99.90
52159;DHT22;38145;53.182;6.284;2022-08-04T06:44:04;22.70;99.90
52159;DHT22;38145;53.182;6.284;2022-08-04T06:46:31;22.80;99.90
52159;DHT22;38145;53.182;6.284;2022-08-04T06:48:59;22.90;99.90
52159;DHT22;38145;53.182;6.284;2022-08-04T06:51:27;22.90;99.90
52159;DHT22;38145;53.182;6.284;2022-08-04T06:53:55;22.90;99.90
52159;DHT22;38145;53.182;6.284;2022-08-04T06:56:22;23.10;99.90
52159;DHT22;38145;53.182;6.284;2022-08-04T06:58:50;23.10;99.90
52159;DHT22;38145;53.182;6.284;2022-08-04T07:01:19;23.10;99.90
52159;DHT22;38145;53.182;6.284;2022-08-04T07:03:46;23.20;99.90
52159;DHT22;38145;53.182;6.284;2022-08-04T07:06:13;23.10;99.90
52159;DHT22;38145;53.182;6.284;2022-08-04T07:08:41;23.20;99.90
52159;DHT22;38145;53.182;6.284;2022-08-04T07:11:08;23.20;99.90
52159;DHT22;38145;53.182;6.284;2022-08-04T07:13:36;23.30;99.90
52159;DHT22;38145;53.182;6.284;2022-08-04T07:16:04;23.20;99.90
52159;DHT22;38145;53.182;6.284;2022-08-04T07:18:31;23.20;99.90
52159;DHT22;38145;53.182;6.284;2022-08-04T07:20:58;23.20;99.90
52159;DHT22;38145;53.182;6.284;2022-08-04T07:23:25;23.40;99.90
52159;DHT22;38145;53.182;6.284;2022-08-04T07:25:54;23.30;99.90
52159;DHT22;38145;53.182;6.284;2022-08-04T07:28:24;23.30;99.90
52159;DHT22;38145;53.182;6.284;2022-08-04T07:30:52;23.50;99.90
52159;DHT22;38145;53.182;6.284;2022-08-04T07:33:20;23.60;99.90
52159;DHT22;38145;53.182;6.284;2022-08-04T07:35:49;23.60;99.90
52159;DHT22;38145;53.182;6.284;2022-08-04T07:38:17;23.80;99.90
52159;DHT22;38145;53.182;6.284;2022-08-04T07:40:44;23.90;99.90
52159;DHT22;38145;53.182;6.284;2022-08-04T07:43:10;23.90;99.90
52159;DHT22;38145;53.182;6.284;2022-08-04T07:45:37;24.10;99.90
52159;DHT22;38145;53.182;6.284;2022-08-04T07:48:04;24.20;99.90
52159;DHT22;38145;53.182;6.284;2022-08-04T07:50:32;24.40;99.90
52159;DHT22;38145;53.182;6.284;2022-08-04T07:53:01;24.60;99.90
52159;DHT22;38145;53.182;6.284;2022-08-04T07:55:28;24.80;99.90
52159;DHT22;38145;53.182;6.284;2022-08-04T07:57:55;25.00;99.90
52159;DHT22;38145;53.182;6.284;2022-08-04T08:00:21;25.20;99.90
52159;DHT22;38145;53.182;6.284;2022-08-04T08:02:49;25.40;99.90
52159;DHT22;38145;53.182;6.284;2022-08-04T08:05:18;25.40;99.90
52159;DHT22;38145;53.182;6.284;2022-08-04T08:07:46;25.40;99.90
52159;DHT22;38145;53.182;6.284;2022-08-04T08:10:14;25.50;99.90
52159;DHT22;38145;53.182;6.284;2022-08-04T08:12:41;25.70;99.90
52159;DHT22;38145;53.182;6.284;2022-08-04T08:15:09;25.90;99.90
52159;DHT22;38145;53.182;6.284;2022-08-04T08:17:36;26.00;99.90
52159;DHT22;38145;53.182;6.284;2022-08-04T08:20:03;26.00;99.90
52159;DHT22;38145;53.182;6.284;2022-08-04T08:22:30;26.10;99.90
52159;DHT22;38145;53.182;6.284;2022-08-04T08:24:57;26.20;99.90
52159;DHT22;38145;53.182;6.284;2022-08-04T08:27:24;26.00;99.90
52159;DHT22;38145;53.182;6.284;2022-08-04T08:29:51;26.10;99.90
52159;DHT22;38145;53.182;6.284;2022-08-04T08:32:17;26.10;99.90
52159;DHT22;38145;53.182;6.284;2022-08-04T08:34:44;26.30;99.90
52159;DHT22;38145;53.182;6.284;2022-08-04T08:37:28;26.40;99.90
52159;DHT22;38145;53.182;6.284;2022-08-04T08:40:15;26.50;99.90
52159;DHT22;38145;53.182;6.284;2022-08-04T08:42:59;26.60;99.90
52159;DHT22;38145;53.182;6.284;2022-08-04T08:45:50;26.70;99.90
52159;DHT22;38145;53.182;6.284;2022-08-04T08:48:26;27.00;99.90
52159;DHT22;38145;53.182;6.284;2022-08-04T08:53:53;27.30;99.90
52159;DHT22;38145;53.182;6.284;2022-08-04T08:56:50;27.00;99.90
52159;DHT22;38145;53.182;6.284;2022-08-04T09:05:07;27.90;99.90
52159;DHT22;38145;53.182;6.284;2022-08-04T09:10:24;28.40;99.90
52159;DHT22;38145;53.182;6.284;2022-08-04T09:13:00;28.70;99.90
52159;DHT22;38145;53.182;6.284;2022-08-04T09:15:42;28.80;99.90
52159;DHT22;38145;53.182;6.284;2022-08-04T09:18:23;28.80;99.90
52159;DHT22;38145;53.182;6.284;2022-08-04T09:20:58;29.10;99.90
52159;DHT22;38145;53.182;6.284;2022-08-04T09:23:40;29.20;99.90
52159;DHT22;38145;53.182;6.284;2022-08-04T09:26:18;29.40;99.90
52159;DHT22;38145;53.182;6.284;2022-08-04T09:28:53;29.50;99.90
52159;DHT22;38145;53.182;6.284;2022-08-04T09:31:32;29.40;99.90
52159;DHT22;38145;53.182;6.284;2022-08-04T09:34:10;29.60;99.90
52159;DHT22;38145;53.182;6.284;2022-08-04T09:36:47;29.60;99.90
52159;DHT22;38145;53.182;6.284;2022-08-04T09:39:23;29.60;99.90
52159;DHT22;38145;53.182;6.284;2022-08-04T09:42:03;29.60;99.90
52159;DHT22;38145;53.182;6.284;2022-08-04T09:44:56;29.50;99.90
52159;DHT22;38145;53.182;6.284;2022-08-04T09:50:19;29.20;99.90
52159;DHT22;38145;53.182;6.284;2022-08-04T09:58:21;28.80;99.90
52159;DHT22;38145;53.182;6.284;2022-08-04T10:01:01;28.60;99.90
52159;DHT22;38145;53.182;6.284;2022-08-04T10:03:34;28.40;99.90
52159;DHT22;38145;53.182;6.284;2022-08-04T10:14:09;28.80;99.90
52159;DHT22;38145;53.182;6.284;2022-08-04T10:16:52;28.70;99.90
52159;DHT22;38145;53.182;6.284;2022-08-04T10:19:26;28.60;99.90
52159;DHT22;38145;53.182;6.284;2022-08-04T10:22:10;28.60;99.90
52159;DHT22;38145;53.182;6.284;2022-08-04T10:27:27;28.80;99.90
52159;DHT22;38145;53.182;6.284;2022-08-04T10:30:02;29.00;99.90
52159;DHT22;38145;53.182;6.284;2022-08-04T10:32:48;28.90;99.90
52159;DHT22;38145;53.182;6.284;2022-08-04T10:35:20;29.00;99.90
52159;DHT22;38145;53.182;6.284;2022-08-04T10:38:09;29.10;99.90
52159;DHT22;38145;53.182;6.284;2022-08-04T10:40:43;29.20;99.90
52159;DHT22;38145;53.182;6.284;2022-08-04T10:43:40;29.00;99.90
52159;DHT22;38145;53.182;6.284;2022-08-04T10:46:11;28.80;99.90
52159;DHT22;38145;53.182;6.284;2022-08-04T10:48:57;28.80;99.90
52159;DHT22;38145;53.182;6.284;2022-08-04T10:51:50;28.90;99.90
52159;DHT22;38145;53.182;6.284;2022-08-04T10:57:19;28.70;99.90
52159;DHT22;38145;53.182;6.284;2022-08-04T11:02:40;28.40;99.90
52159;DHT22;38145;53.182;6.284;2022-08-04T11:05:15;28.10;99.90
52159;DHT22;38145;53.182;6.284;2022-08-04T11:07:47;28.10;99.90
52159;DHT22;38145;53.182;6.284;2022-08-04T11:10:18;28.20;99.90
52159;DHT22;38145;53.182;6.284;2022-08-04T11:12:46;28.00;99.90
52159;DHT22;38145;53.182;6.284;2022-08-04T11:15:21;27.90;99.90
52159;DHT22;38145;53.182;6.284;2022-08-04T11:17:56;27.90;99.90
52159;DHT22;38145;53.182;6.284;2022-08-04T11:20:29;27.90;99.90
52159;DHT22;38145;53.182;6.284;2022-08-04T11:25:42;27.50;99.90
52159;DHT22;38145;53.182;6.284;2022-08-04T11:28:18;27.40;99.90
52159;DHT22;38145;53.182;6.284;2022-08-04T11:30:56;27.40;99.90
52159;DHT22;38145;53.182;6.284;2022-08-04T11:33:46;27.30;99.90
52159;DHT22;38145;53.182;6.284;2022-08-04T11:36:25;27.30;99.90
52159;DHT22;38145;53.182;6.284;2022-08-04T11:39:12;27.40;99.90
52159;DHT22;38145;53.182;6.284;2022-08-04T11:41:47;27.20;99.90
52159;DHT22;38145;53.182;6.284;2022-08-04T11:44:24;27.00;99.90
52159;DHT22;38145;53.182;6.284;2022-08-04T11:46:55;26.90;99.90
52159;DHT22;38145;53.182;6.284;2022-08-04T11:49:37;27.00;99.90
52159;DHT22;38145;53.182;6.284;2022-08-04T11:52:07;27.10;99.90
52159;DHT22;38145;53.182;6.284;2022-08-04T11:54:35;27.10;99.90
52159;DHT22;38145;53.182;6.284;2022-08-04T11:57:03;27.10;99.90
52159;DHT22;38145;53.182;6.284;2022-08-04T11:59:31;27.00;99.90
52159;DHT22;38145;53.182;6.284;2022-08-04T12:02:28;26.80;99.90
52159;DHT22;38145;53.182;6.284;2022-08-04T12:05:00;26.70;99.90
52159;DHT22;38145;53.182;6.284;2022-08-04T12:07:43;26.70;99.90
52159;DHT22;38145;53.182;6.284;2022-08-04T12:10:29;26.70;99.90
52159;DHT22;38145;53.182;6.284;2022-08-04T12:13:14;26.70;99.90
52159;DHT22;38145;53.182;6.284;2022-08-04T12:16:09;26.70;99.90
52159;DHT22;38145;53.182;6.284;2022-08-04T12:18:38;26.70;99.90
52159;DHT22;38145;53.182;6.284;2022-08-04T12:21:13;26.60;99.90
52159;DHT22;38145;53.182;6.284;2022-08-04T12:23:44;26.50;99.90
52159;DHT22;38145;53.182;6.284;2022-08-04T12:26:19;26.40;99.90
52159;DHT22;38145;53.182;6.284;2022-08-04T12:28:50;26.40;99.90
52159;DHT22;38145;53.182;6.284;2022-08-04T12:31:43;26.30;99.90
52159;DHT22;38145;53.182;6.284;2022-08-04T12:39:29;26.50;99.90
52159;DHT22;38145;53.182;6.284;2022-08-04T12:44:34;26.80;99.90
52159;DHT22;38145;53.182;6.284;2022-08-04T12:47:04;27.10;99.90
52159;DHT22;38145;53.182;6.284;2022-08-04T12:49:34;27.40;99.90
52159;DHT22;38145;53.182;6.284;2022-08-04T12:52:04;27.50;99.90
52159;DHT22;38145;53.182;6.284;2022-08-04T12:54:32;27.50;99.90
52159;DHT22;38145;53.182;6.284;2022-08-04T12:57:04;27.50;99.90
52159;DHT22;38145;53.182;6.284;2022-08-04T12:59:43;27.40;99.90
52159;DHT22;38145;53.182;6.284;2022-08-04T13:02:15;27.50;99.90
52159;DHT22;38145;53.182;6.284;2022-08-04T13:04:43;27.50;99.90
52159;DHT22;38145;53.182;6.284;2022-08-04T13:07:10;27.60;99.90
52159;DHT22;38145;53.182;6.284;2022-08-04T13:09:39;27.60;99.90
52159;DHT22;38145;53.182;6.284;2022-08-04T13:12:21;27.50;99.90
52159;DHT22;38145;53.182;6.284;2022-08-04T13:14:52;27.50;99.90
52159;DHT22;38145;53.182;6.284;2022-08-04T13:17:23;27.40;99.90
52159;DHT22;38145;53.182;6.284;2022-08-04T13:19:50;27.30;99.90
52159;DHT22;38145;53.182;6.284;2022-08-04T13:22:24;27.20;99.90
52159;DHT22;38145;53.182;6.284;2022-08-04T13:24:52;27.30;99.90
52159;DHT22;38145;53.182;6.284;2022-08-04T13:27:20;27.50;99.90
52159;DHT22;38145;53.182;6.284;2022-08-04T13:29:49;27.60;99.90
52159;DHT22;38145;53.182;6.284;2022-08-04T13:32:19;27.70;99.90
52159;DHT22;38145;53.182;6.284;2022-08-04T13:34:49;27.70;99.90
52159;DHT22;38145;53.182;6.284;2022-08-04T13:37:18;27.60;99.90
52159;DHT22;38145;53.182;6.284;2022-08-04T13:39:47;27.60;99.90
52159;DHT22;38145;53.182;6.284;2022-08-04T13:42:15;27.50;99.90
52159;DHT22;38145;53.182;6.284;2022-08-04T13:44:47;27.50;99.90
52159;DHT22;38145;53.182;6.284;2022-08-04T13:47:19;27.50;99.90
52159;DHT22;38145;53.182;6.284;2022-08-04T13:50:17;27.50;99.90
52159;DHT22;38145;53.182;6.284;2022-08-04T13:52:45;27.60;99.90
52159;DHT22;38145;53.182;6.284;2022-08-04T13:55:22;27.70;99.90
52159;DHT22;38145;53.182;6.284;2022-08-04T13:57:54;27.70;99.90
52159;DHT22;38145;53.182;6.284;2022-08-04T14:00:21;27.50;99.90
52159;DHT22;38145;53.182;6.284;2022-08-04T14:02:48;27.50;99.90
52159;DHT22;38145;53.182;6.284;2022-08-04T14:05:21;27.30;99.90
52159;DHT22;38145;53.182;6.284;2022-08-04T14:07:57;27.10;99.90
52159;DHT22;38145;53.182;6.284;2022-08-04T14:10:26;26.70;99.90
52159;DHT22;38145;53.182;6.284;2022-08-04T14:12:53;26.40;99.90
52159;DHT22;38145;53.182;6.284;2022-08-04T14:15:37;26.20;99.90
52159;DHT22;38145;53.182;6.284;2022-08-04T14:18:17;25.80;99.90
52159;DHT22;38145;53.182;6.284;2022-08-04T14:21:01;25.60;99.90
52159;DHT22;38145;53.182;6.284;2022-08-04T14:23:28;25.40;99.90
52159;DHT22;38145;53.182;6.284;2022-08-04T14:26:13;25.40;99.90
52159;DHT22;38145;53.182;6.284;2022-08-04T14:28:40;25.50;99.90
52159;DHT22;38145;53.182;6.284;2022-08-04T14:31:13;25.50;99.90
52159;DHT22;38145;53.182;6.284;2022-08-04T14:33:44;25.40;99.90
52159;DHT22;38145;53.182;6.284;2022-08-04T14:36:12;25.30;99.90
52159;DHT22;38145;53.182;6.284;2022-08-04T14:38:47;25.20;99.90
52159;DHT22;38145;53.182;6.284;2022-08-04T14:41:15;25.00;99.90
52159;DHT22;38145;53.182;6.284;2022-08-04T14:43:45;24.90;99.90
52159;DHT22;38145;53.182;6.284;2022-08-04T14:46:11;24.80;99.90
52159;DHT22;38145;53.182;6.284;2022-08-04T14:48:37;24.60;99.90
52159;DHT22;38145;53.182;6.284;2022-08-04T14:51:12;24.40;99.90
52159;DHT22;38145;53.182;6.284;2022-08-04T14:53:46;24.20;99.90
52159;DHT22;38145;53.182;6.284;2022-08-04T14:56:13;24.20;99.90
52159;DHT22;38145;53.182;6.284;2022-08-04T14:58:40;24.30;99.90
52159;DHT22;38145;53.182;6.284;2022-08-04T15:01:10;24.50;99.90
52159;DHT22;38145;53.182;6.284;2022-08-04T15:03:41;24.50;99.90
52159;DHT22;38145;53.182;6.284;2022-08-04T15:06:11;24.50;99.90
52159;DHT22;38145;53.182;6.284;2022-08-04T15:08:38;24.40;99.90
52159;DHT22;38145;53.182;6.284;2022-08-04T15:11:05;24.40;99.90
52159;DHT22;38145;53.182;6.284;2022-08-04T15:13:33;24.50;99.90
52159;DHT22;38145;53.182;6.284;2022-08-04T15:16:00;24.60;99.90
52159;DHT22;38145;53.182;6.284;2022-08-04T15:18:35;24.50;99.90
52159;DHT22;38145;53.182;6.284;2022-08-04T15:21:02;24.40;99.90
52159;DHT22;38145;53.182;6.284;2022-08-04T15:23:30;24.30;99.90
52159;DHT22;38145;53.182;6.284;2022-08-04T15:26:02;24.30;99.90
52159;DHT22;38145;53.182;6.284;2022-08-04T15:28:31;24.30;99.90
52159;DHT22;38145;53.182;6.284;2022-08-04T15:31:00;24.30;99.90
52159;DHT22;38145;53.182;6.284;2022-08-04T15:33:28;24.20;99.90
52159;DHT22;38145;53.182;6.284;2022-08-04T15:36:26;24.10;99.90
52159;DHT22;38145;53.182;6.284;2022-08-04T15:39:04;24.00;99.90
52159;DHT22;38145;53.182;6.284;2022-08-04T15:41:52;23.90;99.90
52159;DHT22;38145;53.182;6.284;2022-08-04T15:44:45;23.80;99.90
52159;DHT22;38145;53.182;6.284;2022-08-04T15:47:17;23.70;99.90
52159;DHT22;38145;53.182;6.284;2022-08-04T15:49:44;23.50;99.90
52159;DHT22;38145;53.182;6.284;2022-08-04T15:52:14;23.50;99.90
52159;DHT22;38145;53.182;6.284;2022-08-04T15:54:42;23.40;99.90
52159;DHT22;38145;53.182;6.284;2022-08-04T15:57:16;23.30;99.90
52159;DHT22;38145;53.182;6.284;2022-08-04T16:00:06;23.40;99.90
52159;DHT22;38145;53.182;6.284;2022-08-04T16:05:30;23.50;99.90
52159;DHT22;38145;53.182;6.284;2022-08-04T16:08:17;23.40;99.90
52159;DHT22;38145;53.182;6.284;2022-08-04T16:10:46;23.40;99.90
52159;DHT22;38145;53.182;6.284;2022-08-04T16:13:20;23.40;99.90
52159;DHT22;38145;53.182;6.284;2022-08-04T16:15:52;23.40;99.90
52159;DHT22;38145;53.182;6.284;2022-08-04T16:18:36;23.40;99.90
52159;DHT22;38145;53.182;6.284;2022-08-04T16:21:06;23.20;99.90
52159;DHT22;38145;53.182;6.284;2022-08-04T16:26:24;23.10;99.90
52159;DHT22;38145;53.182;6.284;2022-08-04T16:29:00;23.10;99.90
52159;DHT22;38145;53.182;6.284;2022-08-04T16:31:27;22.90;99.90
52159;DHT22;38145;53.182;6.284;2022-08-04T16:33:58;22.90;99.90
52159;DHT22;38145;53.182;6.284;2022-08-04T16:36:54;22.80;99.90
52159;DHT22;38145;53.182;6.284;2022-08-04T16:39:21;22.80;99.90
52159;DHT22;38145;53.182;6.284;2022-08-04T16:41:49;22.80;99.90
52159;DHT22;38145;53.182;6.284;2022-08-04T16:44:33;22.90;99.90
52159;DHT22;38145;53.182;6.284;2022-08-04T16:47:04;22.90;99.90
52159;DHT22;38145;53.182;6.284;2022-08-04T16:49:32;22.90;99.90
52159;DHT22;38145;53.182;6.284;2022-08-04T16:52:03;22.90;99.90
52159;DHT22;38145;53.182;6.284;2022-08-04T16:54:33;23.00;99.90
52159;DHT22;38145;53.182;6.284;2022-08-04T16:57:08;23.10;99.90
52159;DHT22;38145;53.182;6.284;2022-08-04T16:59:50;23.20;99.90
52159;DHT22;38145;53.182;6.284;2022-08-04T17:02:23;23.20;99.90
52159;DHT22;38145;53.182;6.284;2022-08-04T17:04:51;23.10;99.90
52159;DHT22;38145;53.182;6.284;2022-08-04T17:07:21;23.10;99.90
52159;DHT22;38145;53.182;6.284;2022-08-04T17:09:50;23.10;99.90
52159;DHT22;38145;53.182;6.284;2022-08-04T17:12:18;23.00;99.90
52159;DHT22;38145;53.182;6.284;2022-08-04T17:14:46;22.90;99.90
52159;DHT22;38145;53.182;6.284;2022-08-04T17:17:14;22.90;99.90
52159;DHT22;38145;53.182;6.284;2022-08-04T17:19:51;22.80;99.90
52159;DHT22;38145;53.182;6.284;2022-08-04T17:22:19;22.70;99.90
52159;DHT22;38145;53.182;6.284;2022-08-04T17:24:46;22.60;99.90
52159;DHT22;38145;53.182;6.284;2022-08-04T17:27:15;22.50;99.90
52159;DHT22;38145;53.182;6.284;2022-08-04T17:29:42;22.40;99.90
52159;DHT22;38145;53.182;6.284;2022-08-04T17:32:12;22.30;99.90
52159;DHT22;38145;53.182;6.284;2022-08-04T17:34:39;22.30;99.90
52159;DHT22;38145;53.182;6.284;2022-08-04T17:37:06;22.10;99.90
52159;DHT22;38145;53.182;6.284;2022-08-04T17:39:33;22.00;99.90
52159;DHT22;38145;53.182;6.284;2022-08-04T17:42:00;21.90;99.90
52159;DHT22;38145;53.182;6.284;2022-08-04T17:44:37;21.90;99.90
52159;DHT22;38145;53.182;6.284;2022-08-04T17:47:15;21.90;99.90
52159;DHT22;38145;53.182;6.284;2022-08-04T17:49:44;21.70;99.90
52159;DHT22;38145;53.182;6.284;2022-08-04T17:52:19;21.70;99.90
52159;DHT22;38145;53.182;6.284;2022-08-04T17:54:58;21.60;99.90
52159;DHT22;38145;53.182;6.284;2022-08-04T17:57:26;21.50;99.90
52159;DHT22;38145;53.182;6.284;2022-08-04T17:59:56;21.40;99.90
52159;DHT22;38145;53.182;6.284;2022-08-04T18:02:26;21.40;99.90
52159;DHT22;38145;53.182;6.284;2022-08-04T18:04:53;21.40;99.90
52159;DHT22;38145;53.182;6.284;2022-08-04T18:07:23;21.40;99.90
52159;DHT22;38145;53.182;6.284;2022-08-04T18:09:59;21.30;99.90
52159;DHT22;38145;53.182;6.284;2022-08-04T18:12:30;21.30;99.90
52159;DHT22;38145;53.182;6.284;2022-08-04T18:14:59;21.20;99.90
52159;DHT22;38145;53.182;6.284;2022-08-04T18:17:36;21.20;99.90
52159;DHT22;38145;53.182;6.284;2022-08-04T18:20:06;21.20;99.90
52159;DHT22;38145;53.182;6.284;2022-08-04T18:22:34;21.10;99.90
52159;DHT22;38145;53.182;6.284;2022-08-04T18:25:05;21.10;99.90